createdAt,value
2019-06-10T00:00:01.487Z,1009.19
2019-06-10T00:01:04.234Z,1009.16
2019-06-10T00:02:02.539Z,1009.17
2019-06-10T00:03:02.831Z,1009.15
2019-06-10T00:04:04.795Z,1009.12
2019-06-10T00:05:03.765Z,1009.09
2019-06-10T00:06:03.350Z,1009.10
2019-06-10T00:07:01.961Z,1009.04
2019-06-10T00:08:03.881Z,1009.09
2019-06-10T00:09:03.121Z,1009.07
2019-06-10T00:10:02.454Z,1008.99
2019-06-10T00:11:03.375Z,1008.97
2019-06-10T00:12:02.539Z,1008.97
2019-06-10T00:13:02.108Z,1008.98
2019-06-10T00:14:02.433Z,1008.94
2019-06-10T00:15:01.840Z,1008.95
2019-06-10T00:16:03.111Z,1008.95
2019-06-10T00:17:01.994Z,1008.98
2019-06-10T00:18:18.774Z,1008.97
2019-06-10T00:19:02.918Z,1008.98
2019-06-10T00:20:02.434Z,1008.99
2019-06-10T00:21:03.255Z,1008.99
2019-06-10T00:22:02.481Z,1008.99
2019-06-10T00:23:02.177Z,1008.98
2019-06-10T00:24:02.602Z,1008.96
2019-06-10T00:25:02.245Z,1008.92
2019-06-10T00:26:03.218Z,1008.89
2019-06-10T00:27:02.399Z,1008.89
2019-06-10T00:28:02.597Z,1008.86
2019-06-10T00:29:00.716Z,1008.83
2019-06-10T00:30:02.587Z,1008.83
2019-06-10T00:31:01.196Z,1008.78
2019-06-10T00:32:03.345Z,1008.79
2019-06-10T00:33:01.179Z,1008.75
2019-06-10T00:34:02.968Z,1008.75
2019-06-10T00:35:01.972Z,1008.75
2019-06-10T00:36:02.314Z,1008.69
2019-06-10T00:37:02.594Z,1008.71
2019-06-10T00:38:02.562Z,1008.64
2019-06-10T00:39:02.456Z,1008.66
2019-06-10T00:40:02.154Z,1008.57
2019-06-10T00:41:02.289Z,1008.60
2019-06-10T00:42:02.495Z,1008.60
2019-06-10T00:43:01.879Z,1008.63
2019-06-10T00:44:08.317Z,1008.66
2019-06-10T00:45:02.699Z,1008.62
2019-06-10T00:46:00.729Z,1008.61
2019-06-10T00:47:00.711Z,1008.59
2019-06-10T00:48:14.861Z,1008.56
2019-06-10T00:49:01.561Z,1008.57
2019-06-10T00:50:03.268Z,1008.58
2019-06-10T00:51:01.323Z,1008.47
2019-06-10T00:52:01.610Z,1008.49
2019-06-10T00:53:01.306Z,1008.48
2019-06-10T00:54:02.003Z,1008.44
2019-06-10T00:55:01.676Z,1008.44
2019-06-10T00:56:03.296Z,1008.44
2019-06-10T00:57:01.229Z,1008.42
2019-06-10T00:58:01.429Z,1008.42
2019-06-10T00:59:01.030Z,1008.42
2019-06-10T01:00:01.223Z,1008.43
2019-06-10T01:01:01.133Z,1008.44
2019-06-10T01:02:01.698Z,1008.43
2019-06-10T01:03:01.081Z,1008.39
2019-06-10T01:04:01.914Z,1008.39
2019-06-10T01:05:00.840Z,1008.40
2019-06-10T01:06:01.142Z,1008.33
2019-06-10T01:07:00.766Z,1008.32
2019-06-10T01:08:01.223Z,1008.31
2019-06-10T01:09:00.627Z,1008.31
2019-06-10T01:10:00.982Z,1008.26
2019-06-10T01:10:58.911Z,1008.24
2019-06-10T01:12:01.065Z,1008.20
2019-06-10T01:13:00.829Z,1008.16
2019-06-10T01:14:01.298Z,1008.15
2019-06-10T01:15:00.765Z,1008.11
2019-06-10T01:15:58.813Z,1008.09
2019-06-10T01:17:01.145Z,1008.12
2019-06-10T01:18:01.404Z,1008.10
2019-06-10T01:19:01.249Z,1008.07
2019-06-10T01:19:58.736Z,1008.07
2019-06-10T01:20:58.607Z,1008.09
2019-06-10T01:21:58.621Z,1008.11
2019-06-10T01:22:58.659Z,1008.08
2019-06-10T01:24:01.049Z,1008.10
2019-06-10T01:25:01.279Z,1008.10
2019-06-10T01:25:58.546Z,1008.09
2019-06-10T01:26:58.473Z,1008.14
2019-06-10T01:28:00.506Z,1008.06
2019-06-10T01:29:00.850Z,1008.09
2019-06-10T01:29:58.473Z,1008.16
2019-06-10T01:30:58.366Z,1008.11
2019-06-10T01:32:01.708Z,1008.13
2019-06-10T01:32:58.329Z,1008.10
2019-06-10T01:34:00.743Z,1008.07
2019-06-10T01:34:58.293Z,1008.06
2019-06-10T01:36:00.617Z,1008.00
2019-06-10T01:36:58.206Z,1007.97
2019-06-10T01:38:01.059Z,1007.97
2019-06-10T01:38:58.161Z,1007.94
2019-06-10T01:40:00.635Z,1007.95
2019-06-10T01:40:58.124Z,1007.91
2019-06-10T01:42:00.502Z,1007.89
2019-06-10T01:42:58.037Z,1007.91
2019-06-10T01:43:58.067Z,1007.89
2019-06-10T01:44:57.999Z,1007.83
2019-06-10T01:45:58.069Z,1007.83
2019-06-10T01:46:57.953Z,1007.83
2019-06-10T01:47:57.994Z,1007.80
2019-06-10T01:48:57.911Z,1007.77
2019-06-10T01:49:57.901Z,1007.82
2019-06-10T01:50:57.855Z,1007.77
2019-06-10T01:51:57.920Z,1007.76
2019-06-10T01:52:57.791Z,1007.76
2019-06-10T01:53:57.823Z,1007.75
2019-06-10T01:54:57.827Z,1007.74
2019-06-10T01:55:57.797Z,1007.71
2019-06-10T01:56:57.675Z,1007.72
2019-06-10T01:57:57.705Z,1007.74
2019-06-10T01:58:57.634Z,1007.71
2019-06-10T01:59:57.645Z,1007.72
2019-06-10T02:00:57.583Z,1007.73
2019-06-10T02:01:57.683Z,1007.72
2019-06-10T02:02:57.538Z,1007.69
2019-06-10T02:03:57.566Z,1007.68
2019-06-10T02:04:57.475Z,1007.65
2019-06-10T02:06:01.181Z,1007.63
2019-06-10T02:06:57.433Z,1007.60
2019-06-10T02:07:57.495Z,1007.64
2019-06-10T02:08:57.387Z,1007.58
2019-06-10T02:09:57.406Z,1007.57
2019-06-10T02:10:57.447Z,1007.56
2019-06-10T02:11:57.430Z,1007.58
2019-06-10T02:12:57.273Z,1007.59
2019-06-10T02:13:57.358Z,1007.55
2019-06-10T02:14:57.218Z,1007.56
2019-06-10T02:15:57.232Z,1007.55
2019-06-10T02:16:57.173Z,1007.53
2019-06-10T02:17:57.271Z,1007.52
2019-06-10T02:19:00.787Z,1007.48
2019-06-10T02:19:57.167Z,1007.50
2019-06-10T02:20:57.067Z,1007.45
2019-06-10T02:21:57.092Z,1007.42
2019-06-10T02:22:57.010Z,1007.39
2019-06-10T02:23:57.089Z,1007.38
2019-06-10T02:24:56.943Z,1007.35
2019-06-10T02:25:57.001Z,1007.34
2019-06-10T02:26:56.997Z,1007.33
2019-06-10T02:27:57.015Z,1007.30
2019-06-10T02:28:56.869Z,1007.29
2019-06-10T02:29:56.926Z,1007.21
2019-06-10T02:30:56.817Z,1007.22
2019-06-10T02:31:56.844Z,1007.17
2019-06-10T02:32:56.754Z,1007.13
2019-06-10T02:33:56.878Z,1007.12
2019-06-10T02:35:08.937Z,1007.11
2019-06-10T02:35:56.773Z,1007.08
2019-06-10T02:36:56.641Z,1007.06
2019-06-10T02:37:56.686Z,1007.02
2019-06-10T02:38:56.622Z,1006.98
2019-06-10T02:39:56.708Z,1006.96
2019-06-10T02:40:56.558Z,1007.01
2019-06-10T02:41:57.621Z,1006.99
2019-06-10T02:42:56.493Z,1006.97
2019-06-10T02:43:56.501Z,1006.94
2019-06-10T02:44:56.452Z,1006.94
2019-06-10T02:45:56.515Z,1006.92
2019-06-10T02:46:56.382Z,1006.88
2019-06-10T02:47:56.445Z,1006.90
2019-06-10T02:48:56.322Z,1006.86
2019-06-10T02:50:02.057Z,1006.90
2019-06-10T02:50:56.288Z,1006.85
2019-06-10T02:51:57.281Z,1006.87
2019-06-10T02:52:56.289Z,1006.86
2019-06-10T02:53:56.374Z,1006.87
2019-06-10T02:54:56.175Z,1006.86
2019-06-10T02:55:56.203Z,1006.86
2019-06-10T02:56:56.156Z,1006.89
2019-06-10T02:57:56.174Z,1006.86
2019-06-10T02:58:56.084Z,1006.84
2019-06-10T02:59:56.075Z,1006.84
2019-06-10T03:00:56.026Z,1006.82
2019-06-10T03:01:56.082Z,1006.81
2019-06-10T03:02:55.979Z,1006.80
2019-06-10T03:03:56.009Z,1006.80
2019-06-10T03:04:55.909Z,1006.78
2019-06-10T03:05:55.938Z,1006.77
2019-06-10T03:06:55.862Z,1006.76
2019-06-10T03:07:55.925Z,1006.80
2019-06-10T03:08:55.813Z,1006.75
2019-06-10T03:09:55.819Z,1006.75
2019-06-10T03:10:55.783Z,1006.73
2019-06-10T03:11:56.778Z,1006.72
2019-06-10T03:12:55.698Z,1006.76
2019-06-10T03:13:55.779Z,1006.74
2019-06-10T03:14:55.660Z,1006.74
2019-06-10T03:15:55.667Z,1006.78
2019-06-10T03:16:55.610Z,1006.78
2019-06-10T03:17:55.676Z,1006.78
2019-06-10T03:18:55.566Z,1006.79
2019-06-10T03:19:55.600Z,1006.73
2019-06-10T03:20:55.511Z,1006.72
2019-06-10T03:21:55.506Z,1006.70
2019-06-10T03:22:55.447Z,1006.73
2019-06-10T03:23:55.514Z,1006.73
2019-06-10T03:24:55.387Z,1006.73
2019-06-10T03:25:55.443Z,1006.75
2019-06-10T03:26:55.346Z,1006.77
2019-06-10T03:27:56.370Z,1006.75
2019-06-10T03:28:55.306Z,1006.80
2019-06-10T03:29:55.343Z,1006.76
2019-06-10T03:30:58.790Z,1006.79
2019-06-10T03:31:55.763Z,1006.81
2019-06-10T03:32:55.735Z,1006.77
2019-06-10T03:33:55.155Z,1006.79
2019-06-10T03:34:55.301Z,1006.80
2019-06-10T03:35:55.146Z,1006.81
2019-06-10T03:36:55.079Z,1006.85
2019-06-10T03:37:55.073Z,1006.85
2019-06-10T03:38:55.049Z,1006.88
2019-06-10T03:39:55.012Z,1006.86
2019-06-10T03:40:54.987Z,1006.81
2019-06-10T03:41:54.956Z,1006.80
2019-06-10T03:42:54.933Z,1006.82
2019-06-10T03:43:54.896Z,1006.77
2019-06-10T03:44:54.993Z,1006.78
2019-06-10T03:45:54.837Z,1006.74
2019-06-10T03:46:54.825Z,1006.73
2019-06-10T03:47:54.791Z,1006.73
2019-06-10T03:48:54.775Z,1006.74
2019-06-10T03:49:56.218Z,1006.73
2019-06-10T03:50:54.727Z,1006.75
2019-06-10T03:51:54.683Z,1006.76
2019-06-10T03:52:54.683Z,1006.76
2019-06-10T03:53:54.697Z,1006.78
2019-06-10T03:54:54.599Z,1006.79
2019-06-10T03:55:54.605Z,1006.78
2019-06-10T03:56:54.565Z,1006.78
2019-06-10T03:57:54.610Z,1006.75
2019-06-10T03:58:54.513Z,1006.78
2019-06-10T03:59:54.532Z,1006.79
2019-06-10T04:00:54.488Z,1006.76
2019-06-10T04:01:54.450Z,1006.74
2019-06-10T04:02:54.407Z,1006.73
2019-06-10T04:03:54.484Z,1006.75
2019-06-10T04:04:54.350Z,1006.75
2019-06-10T04:05:54.380Z,1006.72
2019-06-10T04:06:54.313Z,1006.71
2019-06-10T04:07:54.403Z,1006.73
2019-06-10T04:08:54.252Z,1006.68
2019-06-10T04:09:54.296Z,1006.68
2019-06-10T04:10:54.218Z,1006.69
2019-06-10T04:11:54.227Z,1006.64
2019-06-10T04:12:54.217Z,1006.67
2019-06-10T04:13:54.247Z,1006.66
2019-06-10T04:14:54.074Z,1006.65
2019-06-10T04:15:54.148Z,1006.66
2019-06-10T04:16:54.051Z,1006.63
2019-06-10T04:17:54.049Z,1006.64
2019-06-10T04:18:53.974Z,1006.61
2019-06-10T04:20:08.106Z,1006.59
2019-06-10T04:20:53.934Z,1006.51
2019-06-10T04:21:53.961Z,1006.59
2019-06-10T04:22:53.872Z,1006.53
2019-06-10T04:23:53.892Z,1006.51
2019-06-10T04:24:53.834Z,1006.51
2019-06-10T04:25:53.905Z,1006.47
2019-06-10T04:26:53.766Z,1006.50
2019-06-10T04:27:53.753Z,1006.47
2019-06-10T04:28:53.719Z,1006.46
2019-06-10T04:29:53.797Z,1006.42
2019-06-10T04:30:53.718Z,1006.38
2019-06-10T04:31:53.636Z,1006.41
2019-06-10T04:32:53.624Z,1006.37
2019-06-10T04:33:53.598Z,1006.37
2019-06-10T04:34:53.583Z,1006.37
2019-06-10T04:35:53.555Z,1006.37
2019-06-10T04:36:53.629Z,1006.39
2019-06-10T04:37:53.480Z,1006.36
2019-06-10T04:38:53.545Z,1006.36
2019-06-10T04:39:53.434Z,1006.34
2019-06-10T04:40:53.486Z,1006.33
2019-06-10T04:41:53.390Z,1006.28
2019-06-10T04:42:53.455Z,1006.29
2019-06-10T04:43:53.358Z,1006.29
2019-06-10T04:44:53.370Z,1006.30
2019-06-10T04:45:53.313Z,1006.33
2019-06-10T04:46:54.284Z,1006.35
2019-06-10T04:47:53.232Z,1006.35
2019-06-10T04:48:53.424Z,1006.38
2019-06-10T04:49:53.156Z,1006.41
2019-06-10T04:50:53.534Z,1006.34
2019-06-10T04:51:53.113Z,1006.37
2019-06-10T04:52:53.091Z,1006.37
2019-06-10T04:53:53.095Z,1006.34
2019-06-10T04:54:53.145Z,1006.32
2019-06-10T04:55:53.125Z,1006.39
2019-06-10T04:56:53.055Z,1006.35
2019-06-10T04:57:52.973Z,1006.38
2019-06-10T04:58:52.976Z,1006.36
2019-06-10T04:59:53.052Z,1006.31
2019-06-10T05:00:54.015Z,1006.38
2019-06-10T05:01:53.162Z,1006.32
2019-06-10T05:02:54.963Z,1006.34
2019-06-10T05:03:52.838Z,1006.35
2019-06-10T05:04:53.211Z,1006.35
2019-06-10T05:05:53.826Z,1006.36
2019-06-10T05:06:52.817Z,1006.31
2019-06-10T05:07:52.806Z,1006.29
2019-06-10T05:08:53.753Z,1006.27
2019-06-10T05:09:53.770Z,1006.26
2019-06-10T05:10:52.989Z,1006.25
2019-06-10T05:11:52.702Z,1006.25
2019-06-10T05:12:52.687Z,1006.22
2019-06-10T05:13:53.317Z,1006.21
2019-06-10T05:14:52.729Z,1006.18
2019-06-10T05:15:52.767Z,1006.20
2019-06-10T05:16:54.336Z,1006.17
2019-06-10T05:17:53.515Z,1006.15
2019-06-10T05:18:54.745Z,1006.17
2019-06-10T05:19:53.079Z,1006.21
2019-06-10T05:20:58.453Z,1006.19
2019-06-10T05:21:52.497Z,1006.12
2019-06-10T05:22:52.850Z,1006.12
2019-06-10T05:23:59.403Z,1006.14
2019-06-10T05:24:52.722Z,1006.13
2019-06-10T05:25:52.799Z,1006.12
2019-06-10T05:26:52.678Z,1006.16
2019-06-10T05:27:52.287Z,1006.19
2019-06-10T05:28:52.540Z,1006.17
2019-06-10T05:29:52.712Z,1006.20
2019-06-10T05:30:53.207Z,1006.16
2019-06-10T05:31:52.340Z,1006.17
2019-06-10T05:32:53.123Z,1006.21
2019-06-10T05:33:52.983Z,1006.19
2019-06-10T05:34:53.081Z,1006.17
2019-06-10T05:35:52.964Z,1006.18
2019-06-10T05:36:52.529Z,1006.21
2019-06-10T05:37:52.704Z,1006.18
2019-06-10T05:38:52.590Z,1006.22
2019-06-10T05:39:52.672Z,1006.23
2019-06-10T05:40:52.199Z,1006.24
2019-06-10T05:41:53.111Z,1006.21
2019-06-10T05:42:52.876Z,1006.24
2019-06-10T05:43:52.353Z,1006.26
2019-06-10T05:44:52.510Z,1006.30
2019-06-10T05:45:52.988Z,1006.28
2019-06-10T05:46:52.827Z,1006.28
2019-06-10T05:47:53.097Z,1006.30
2019-06-10T05:48:52.557Z,1006.30
2019-06-10T05:49:52.973Z,1006.29
2019-06-10T05:51:00.125Z,1006.31
2019-06-10T05:51:52.686Z,1006.29
2019-06-10T05:52:52.070Z,1006.29
2019-06-10T05:53:52.831Z,1006.28
2019-06-10T05:54:52.148Z,1006.25
2019-06-10T05:55:52.989Z,1006.28
2019-06-10T05:56:52.169Z,1006.25
2019-06-10T05:57:53.238Z,1006.31
2019-06-10T05:58:52.521Z,1006.28
2019-06-10T05:59:52.255Z,1006.28
2019-06-10T06:00:53.170Z,1006.26
2019-06-10T06:01:53.889Z,1006.26
2019-06-10T06:02:52.273Z,1006.26
2019-06-10T06:03:52.929Z,1006.25
2019-06-10T06:04:53.092Z,1006.26
2019-06-10T06:05:52.483Z,1006.21
2019-06-10T06:06:53.158Z,1006.23
2019-06-10T06:08:02.261Z,1006.18
2019-06-10T06:08:53.222Z,1006.17
2019-06-10T06:09:53.172Z,1006.10
2019-06-10T06:10:52.718Z,1006.11
2019-06-10T06:11:52.375Z,1006.08
2019-06-10T06:12:52.693Z,1006.06
2019-06-10T06:13:52.219Z,1006.09
2019-06-10T06:14:52.746Z,1006.08
2019-06-10T06:15:52.775Z,1006.07
2019-06-10T06:16:53.393Z,1006.06
2019-06-10T06:18:05.719Z,1006.08
2019-06-10T06:18:52.653Z,1006.04
2019-06-10T06:19:53.308Z,1006.06
2019-06-10T06:20:52.620Z,1006.02
2019-06-10T06:21:52.862Z,1006.00
2019-06-10T06:22:52.272Z,1006.06
2019-06-10T06:23:52.809Z,1006.05
2019-06-10T06:24:52.286Z,1006.07
2019-06-10T06:25:53.167Z,1006.12
2019-06-10T06:26:53.276Z,1006.16
2019-06-10T06:27:52.462Z,1006.21
2019-06-10T06:28:53.279Z,1006.19
2019-06-10T06:29:52.485Z,1006.19
2019-06-10T06:30:52.813Z,1006.22
2019-06-10T06:31:52.392Z,1006.22
2019-06-10T06:32:53.074Z,1006.25
2019-06-10T06:33:52.711Z,1006.21
2019-06-10T06:34:52.588Z,1006.22
2019-06-10T06:35:52.424Z,1006.17
2019-06-10T06:36:52.694Z,1006.18
2019-06-10T06:37:50.367Z,1006.20
2019-06-10T06:38:52.860Z,1006.20
2019-06-10T06:39:52.306Z,1006.21
2019-06-10T06:40:53.513Z,1006.18
2019-06-10T06:41:52.717Z,1006.17
2019-06-10T06:42:52.439Z,1006.18
2019-06-10T06:43:52.775Z,1006.21
2019-06-10T06:44:52.399Z,1006.16
2019-06-10T06:45:53.003Z,1006.12
2019-06-10T06:46:50.100Z,1006.11
2019-06-10T06:47:52.451Z,1006.12
2019-06-10T06:48:50.049Z,1006.07
2019-06-10T06:49:50.037Z,1006.06
2019-06-10T06:51:01.814Z,1006.08
2019-06-10T06:51:56.159Z,1006.06
2019-06-10T06:53:18.887Z,1006.08
2019-06-10T06:53:53.018Z,1006.14
2019-06-10T06:54:49.909Z,1006.04
2019-06-10T06:55:53.478Z,1006.08
2019-06-10T06:56:49.831Z,1006.03
2019-06-10T06:57:49.827Z,1006.13
2019-06-10T06:58:52.235Z,1006.07
2019-06-10T06:59:49.776Z,1006.11
2019-06-10T07:01:01.346Z,1006.10
2019-06-10T07:01:52.303Z,1006.13
2019-06-10T07:02:49.689Z,1006.15
2019-06-10T07:03:49.735Z,1006.20
2019-06-10T07:04:49.641Z,1006.18
2019-06-10T07:05:49.630Z,1006.16
2019-06-10T07:06:53.315Z,1006.16
2019-06-10T07:07:49.647Z,1006.12
2019-06-10T07:09:01.456Z,1006.10
2019-06-10T07:09:49.664Z,1006.13
2019-06-10T07:10:49.477Z,1006.10
2019-06-10T07:11:49.496Z,1006.11
2019-06-10T07:12:49.455Z,1006.07
2019-06-10T07:13:58.520Z,1006.07
2019-06-10T07:14:49.349Z,1006.01
2019-06-10T07:15:57.401Z,1006.05
2019-06-10T07:16:49.315Z,1006.04
2019-06-10T07:17:49.307Z,1006.05
2019-06-10T07:18:50.444Z,1006.08
2019-06-10T07:19:49.325Z,1006.09
2019-06-10T07:20:49.211Z,1006.10
2019-06-10T07:22:08.045Z,1006.10
2019-06-10T07:22:49.150Z,1006.08
2019-06-10T07:23:52.596Z,1006.07
2019-06-10T07:24:49.110Z,1006.04
2019-06-10T07:25:49.180Z,1006.06
2019-06-10T07:26:52.246Z,1006.01
2019-06-10T07:27:49.085Z,1006.00
2019-06-10T07:28:48.991Z,1006.01
2019-06-10T07:29:49.140Z,1006.01
2019-06-10T07:30:52.839Z,1006.03
2019-06-10T07:31:50.269Z,1006.00
2019-06-10T07:32:48.899Z,1006.04
2019-06-10T07:33:48.966Z,1006.02
2019-06-10T07:34:48.872Z,1006.01
2019-06-10T07:35:48.925Z,1006.00
2019-06-10T07:36:48.786Z,1006.04
2019-06-10T07:37:48.767Z,1006.00
2019-06-10T07:38:49.303Z,1006.05
2019-06-10T07:39:48.717Z,1006.03
2019-06-10T07:40:48.678Z,1005.99
2019-06-10T07:41:48.726Z,1006.01
2019-06-10T07:42:48.641Z,1005.99
2019-06-10T07:43:49.803Z,1005.95
2019-06-10T07:44:48.739Z,1005.96
2019-06-10T07:45:48.559Z,1005.96
2019-06-10T07:46:48.531Z,1005.97
2019-06-10T07:47:48.514Z,1005.98
2019-06-10T07:48:52.510Z,1005.96
2019-06-10T07:49:49.526Z,1005.93
2019-06-10T07:50:48.431Z,1005.96
2019-06-10T07:51:55.383Z,1005.97
2019-06-10T07:52:48.401Z,1005.94
2019-06-10T07:53:48.775Z,1005.95
2019-06-10T07:54:48.315Z,1005.95
2019-06-10T07:55:48.296Z,1005.91
2019-06-10T07:56:50.567Z,1005.92
2019-06-10T07:57:48.232Z,1005.91
2019-06-10T07:58:48.234Z,1005.89
2019-06-10T07:59:48.211Z,1005.90
2019-06-10T08:00:48.695Z,1005.85
2019-06-10T08:01:51.440Z,1005.87
2019-06-10T08:02:48.206Z,1005.90
2019-06-10T08:03:48.115Z,1005.87
2019-06-10T08:04:48.117Z,1005.88
2019-06-10T08:05:48.027Z,1005.88
2019-06-10T08:06:50.059Z,1005.84
2019-06-10T08:07:48.996Z,1005.88
2019-06-10T08:08:49.045Z,1005.88
2019-06-10T08:09:47.913Z,1005.87
2019-06-10T08:10:48.947Z,1005.81
2019-06-10T08:11:48.811Z,1005.88
2019-06-10T08:12:48.396Z,1005.93
2019-06-10T08:13:48.057Z,1005.96
2019-06-10T08:14:48.001Z,1005.98
2019-06-10T08:15:48.381Z,1006.02
2019-06-10T08:16:48.633Z,1005.99
2019-06-10T08:17:48.225Z,1005.99
2019-06-10T08:19:16.072Z,1005.98
2019-06-10T08:19:50.897Z,1005.94
2019-06-10T08:20:48.686Z,1005.91
2019-06-10T08:21:49.426Z,1005.86
2019-06-10T08:22:54.082Z,1005.88
2019-06-10T08:23:48.583Z,1005.80
2019-06-10T08:24:47.847Z,1005.77
2019-06-10T08:25:53.801Z,1005.73
2019-06-10T08:26:47.794Z,1005.73
2019-06-10T08:27:49.262Z,1005.68
2019-06-10T08:28:48.315Z,1005.67
2019-06-10T08:29:49.581Z,1005.70
2019-06-10T08:30:48.243Z,1005.67
2019-06-10T08:31:49.465Z,1005.67
2019-06-10T08:32:53.066Z,1005.63
2019-06-10T08:33:49.040Z,1005.66
2019-06-10T08:34:48.088Z,1005.66
2019-06-10T08:35:56.057Z,1005.64
2019-06-10T08:36:50.385Z,1005.66
2019-06-10T08:37:47.460Z,1005.65
2019-06-10T08:38:48.743Z,1005.67
2019-06-10T08:39:47.655Z,1005.64
2019-06-10T08:40:48.529Z,1005.62
2019-06-10T08:41:49.083Z,1005.67
2019-06-10T08:42:48.834Z,1005.68
2019-06-10T08:43:48.472Z,1005.68
2019-06-10T08:44:48.474Z,1005.71
2019-06-10T08:45:48.696Z,1005.67
2019-06-10T08:46:48.677Z,1005.70
2019-06-10T08:47:47.723Z,1005.62
2019-06-10T08:48:48.164Z,1005.62
2019-06-10T08:49:49.035Z,1005.59
2019-06-10T08:50:49.681Z,1005.59
2019-06-10T08:51:49.973Z,1005.56
2019-06-10T08:53:03.952Z,1005.57
2019-06-10T08:53:49.498Z,1005.55
2019-06-10T08:54:50.946Z,1005.58
2019-06-10T08:55:48.365Z,1005.55
2019-06-10T08:56:50.275Z,1005.55
2019-06-10T08:57:49.440Z,1005.57
2019-06-10T08:58:49.659Z,1005.52
2019-06-10T08:59:48.191Z,1005.49
2019-06-10T09:00:49.282Z,1005.52
2019-06-10T09:01:51.566Z,1005.46
2019-06-10T09:02:48.977Z,1005.49
2019-06-10T09:03:49.395Z,1005.45
2019-06-10T09:04:49.271Z,1005.41
2019-06-10T09:05:49.374Z,1005.40
2019-06-10T09:06:50.355Z,1005.40
2019-06-10T09:07:49.999Z,1005.37
2019-06-10T09:08:49.932Z,1005.34
2019-06-10T09:09:49.114Z,1005.32
2019-06-10T09:10:49.867Z,1005.37
2019-06-10T09:11:50.827Z,1005.33
2019-06-10T09:12:49.671Z,1005.32
2019-06-10T09:13:48.070Z,1005.36
2019-06-10T09:14:49.653Z,1005.32
2019-06-10T09:16:03.641Z,1005.35
2019-06-10T09:16:48.637Z,1005.35
2019-06-10T09:17:49.266Z,1005.29
2019-06-10T09:18:49.040Z,1005.28
2019-06-10T09:19:48.819Z,1005.28
2019-06-10T09:20:52.393Z,1005.25
2019-06-10T09:21:49.769Z,1005.22
2019-06-10T09:22:54.378Z,1005.18
2019-06-10T09:23:50.385Z,1005.21
2019-06-10T09:24:50.437Z,1005.21
2019-06-10T09:25:49.600Z,1005.21
2019-06-10T09:26:48.659Z,1005.24
2019-06-10T09:27:47.984Z,1005.29
2019-06-10T09:28:50.813Z,1005.28
2019-06-10T09:29:49.758Z,1005.32
2019-06-10T09:30:52.489Z,1005.34
2019-06-10T09:31:49.245Z,1005.32
2019-06-10T09:32:49.932Z,1005.31
2019-06-10T09:33:50.295Z,1005.27
2019-06-10T09:34:49.680Z,1005.25
2019-06-10T09:35:49.004Z,1005.25
2019-06-10T09:36:47.964Z,1005.22
2019-06-10T09:37:48.452Z,1005.16
2019-06-10T09:38:48.711Z,1005.19
2019-06-10T09:39:50.751Z,1005.20
2019-06-10T09:40:48.968Z,1005.26
2019-06-10T09:41:55.383Z,1005.29
2019-06-10T09:42:48.134Z,1005.34
2019-06-10T09:43:50.331Z,1005.32
2019-06-10T09:44:48.456Z,1005.39
2019-06-10T09:45:47.560Z,1005.38
2019-06-10T09:46:47.707Z,1005.42
2019-06-10T09:47:49.259Z,1005.41
2019-06-10T09:48:49.621Z,1005.42
2019-06-10T09:49:47.508Z,1005.33
2019-06-10T09:50:49.455Z,1005.34
2019-06-10T09:51:49.002Z,1005.35
2019-06-10T09:52:50.357Z,1005.35
2019-06-10T09:53:53.389Z,1005.33
2019-06-10T09:54:47.960Z,1005.31
2019-06-10T09:55:48.015Z,1005.26
2019-06-10T09:56:47.253Z,1005.28
2019-06-10T09:57:47.647Z,1005.22
2019-06-10T09:58:48.118Z,1005.21
2019-06-10T09:59:48.366Z,1005.23
2019-06-10T10:00:48.799Z,1005.25
2019-06-10T10:01:50.300Z,1005.25
2019-06-10T10:02:48.113Z,1005.24
2019-06-10T10:03:49.453Z,1005.25
2019-06-10T10:04:48.881Z,1005.23
2019-06-10T10:05:55.863Z,1005.23
2019-06-10T10:06:48.117Z,1005.22
2019-06-10T10:07:48.568Z,1005.19
2019-06-10T10:08:49.300Z,1005.20
2019-06-10T10:09:48.259Z,1005.18
2019-06-10T10:10:47.963Z,1005.19
2019-06-10T10:11:49.005Z,1005.21
2019-06-10T10:12:47.570Z,1005.21
2019-06-10T10:13:46.535Z,1005.21
2019-06-10T10:14:47.807Z,1005.19
2019-06-10T10:15:45.614Z,1005.19
2019-06-10T10:16:49.336Z,1005.11
2019-06-10T10:17:47.656Z,1005.11
2019-06-10T10:18:47.343Z,1005.09
2019-06-10T10:19:47.813Z,1005.07
2019-06-10T10:20:47.848Z,1005.06
2019-06-10T10:21:46.841Z,1005.12
2019-06-10T10:22:47.058Z,1005.08
2019-06-10T10:23:56.808Z,1005.07
2019-06-10T10:24:45.866Z,1004.99
2019-06-10T10:25:46.570Z,1004.98
2019-06-10T10:26:47.132Z,1005.01
2019-06-10T10:27:48.315Z,1005.03
2019-06-10T10:28:46.180Z,1005.02
2019-06-10T10:29:46.920Z,1005.00
2019-06-10T10:30:46.037Z,1004.98
2019-06-10T10:31:47.374Z,1005.01
2019-06-10T10:32:47.240Z,1004.97
2019-06-10T10:33:44.379Z,1004.94
2019-06-10T10:34:47.027Z,1004.96
2019-06-10T10:35:46.070Z,1004.90
2019-06-10T10:36:48.306Z,1004.94
2019-06-10T10:37:44.546Z,1004.89
2019-06-10T10:38:44.753Z,1004.87
2019-06-10T10:39:45.144Z,1004.90
2019-06-10T10:40:47.136Z,1004.91
2019-06-10T10:41:45.159Z,1004.89
2019-06-10T10:42:48.608Z,1004.88
2019-06-10T10:43:47.068Z,1004.79
2019-06-10T10:44:46.667Z,1004.78
2019-06-10T10:45:47.453Z,1004.73
2019-06-10T10:46:45.509Z,1004.67
2019-06-10T10:47:44.974Z,1004.67
2019-06-10T10:48:44.973Z,1004.67
2019-06-10T10:49:44.975Z,1004.59
2019-06-10T10:50:45.495Z,1004.61
2019-06-10T10:51:44.845Z,1004.61
2019-06-10T10:52:45.045Z,1004.65
2019-06-10T10:53:48.367Z,1004.63
2019-06-10T10:54:45.092Z,1004.63
2019-06-10T10:55:44.995Z,1004.66
2019-06-10T10:56:46.222Z,1004.66
2019-06-10T10:57:43.681Z,1004.67
2019-06-10T10:58:45.556Z,1004.67
2019-06-10T10:59:45.093Z,1004.64
2019-06-10T11:00:45.372Z,1004.67
2019-06-10T11:01:44.125Z,1004.63
2019-06-10T11:02:44.856Z,1004.64
2019-06-10T11:03:45.618Z,1004.67
2019-06-10T11:04:44.303Z,1004.66
2019-06-10T11:05:46.300Z,1004.65
2019-06-10T11:06:44.460Z,1004.67
2019-06-10T11:07:44.465Z,1004.68
2019-06-10T11:08:45.306Z,1004.62
2019-06-10T11:09:44.827Z,1004.61
2019-06-10T11:10:45.646Z,1004.63
2019-06-10T11:11:45.733Z,1004.62
2019-06-10T11:12:43.300Z,1004.59
2019-06-10T11:13:43.426Z,1004.56
2019-06-10T11:14:43.247Z,1004.56
2019-06-10T11:15:43.559Z,1004.58
2019-06-10T11:16:43.278Z,1004.55
2019-06-10T11:17:43.315Z,1004.54
2019-06-10T11:18:43.130Z,1004.52
2019-06-10T11:19:43.234Z,1004.48
2019-06-10T11:20:43.094Z,1004.47
2019-06-10T11:21:43.359Z,1004.44
2019-06-10T11:22:43.407Z,1004.46
2019-06-10T11:23:43.786Z,1004.46
2019-06-10T11:24:44.879Z,1004.46
2019-06-10T11:25:43.221Z,1004.43
2019-06-10T11:26:43.295Z,1004.43
2019-06-10T11:27:43.242Z,1004.45
2019-06-10T11:28:43.323Z,1004.40
2019-06-10T11:29:42.999Z,1004.41
2019-06-10T11:30:42.846Z,1004.39
2019-06-10T11:31:43.011Z,1004.41
2019-06-10T11:32:43.342Z,1004.36
2019-06-10T11:33:43.697Z,1004.34
2019-06-10T11:34:42.980Z,1004.30
2019-06-10T11:35:42.931Z,1004.34
2019-06-10T11:36:42.768Z,1004.31
2019-06-10T11:37:42.889Z,1004.23
2019-06-10T11:38:42.664Z,1004.26
2019-06-10T11:39:42.753Z,1004.26
2019-06-10T11:40:42.944Z,1004.21
2019-06-10T11:41:43.078Z,1004.20
2019-06-10T11:42:43.650Z,1004.18
2019-06-10T11:43:43.199Z,1004.20
2019-06-10T11:44:42.641Z,1004.16
2019-06-10T11:45:48.545Z,1004.10
2019-06-10T11:46:43.038Z,1004.07
2019-06-10T11:47:42.636Z,1004.05
2019-06-10T11:48:43.503Z,1004.07
2019-06-10T11:49:43.465Z,1003.98
2019-06-10T11:50:42.933Z,1003.99
2019-06-10T11:51:42.334Z,1003.96
2019-06-10T11:52:43.330Z,1003.90
2019-06-10T11:53:44.014Z,1003.93
2019-06-10T11:54:55.610Z,1003.92
2019-06-10T11:55:42.473Z,1003.91
2019-06-10T11:56:42.301Z,1003.87
2019-06-10T11:57:42.465Z,1003.91
2019-06-10T11:58:43.336Z,1003.92
2019-06-10T11:59:43.409Z,1003.91
2019-06-10T12:00:42.640Z,1003.89
2019-06-10T12:01:42.703Z,1003.90
2019-06-10T12:02:42.599Z,1003.89
2019-06-10T12:03:43.233Z,1003.90
2019-06-10T12:04:42.014Z,1003.88